createdAt,value
2022-12-11T00:01:47.259Z,99606.90
2022-12-11T00:04:19.487Z,99609.17
2022-12-11T00:06:51.667Z,99610.04
2022-12-11T00:09:24.005Z,99610.20
2022-12-11T00:12:00.211Z,99612.67
2022-12-11T00:14:33.730Z,99611.51
2022-12-11T00:17:06.163Z,99612.04
2022-12-11T00:19:38.940Z,99612.05
2022-12-11T00:22:11.046Z,99613.70
2022-12-11T00:24:43.188Z,99615.13
2022-12-11T00:27:15.473Z,99615.69
2022-12-11T00:29:47.558Z,99615.09
2022-12-11T00:32:19.973Z,99612.73
2022-12-11T00:34:51.949Z,99611.09
2022-12-11T00:37:24.087Z,99612.66
2022-12-11T00:39:57.895Z,99605.09
2022-12-11T00:42:35.299Z,99604.15
2022-12-11T00:45:09.739Z,99604.66
2022-12-11T00:47:43.303Z,99601.55
2022-12-11T00:50:17.591Z,99607.10
2022-12-11T00:52:50.570Z,99607.70
2022-12-11T00:55:22.620Z,99609.02
2022-12-11T00:57:55.978Z,99603.98
2022-12-11T01:00:34.788Z,99604.14
2022-12-11T01:03:08.164Z,99609.62
2022-12-11T01:05:41.601Z,99616.09
2022-12-11T01:08:14.041Z,99619.24
2022-12-11T01:10:46.044Z,99620.33
2022-12-11T01:13:18.805Z,99615.48
2022-12-11T01:15:50.812Z,99615.33
2022-12-11T01:18:23.058Z,99609.22
2022-12-11T01:20:54.980Z,99613.36
2022-12-11T01:23:28.098Z,99607.30
2022-12-11T01:26:05.243Z,99602.20
2022-12-11T01:28:39.592Z,99597.61
2022-12-11T01:31:14.032Z,99592.90
2022-12-11T01:33:48.832Z,99580.91
2022-12-11T01:36:23.293Z,99574.29
2022-12-11T01:38:56.309Z,99564.97
2022-12-11T01:41:36.249Z,99561.30
2022-12-11T01:44:29.650Z,99559.30
2022-12-11T01:47:01.715Z,99551.27
2022-12-11T01:49:34.047Z,99551.04
2022-12-11T01:52:12.829Z,99549.74
2022-12-11T01:54:45.837Z,99548.27
2022-12-11T01:57:18.933Z,99548.31
2022-12-11T01:59:52.456Z,99550.06
2022-12-11T02:02:30.348Z,99545.48
2022-12-11T02:05:06.048Z,99544.41
2022-12-11T02:07:42.734Z,99535.15
2022-12-11T02:10:15.729Z,99536.33
2022-12-11T02:12:58.815Z,99535.02
2022-12-11T02:15:50.046Z,99530.66
2022-12-11T02:18:30.783Z,99529.47
2022-12-11T02:21:10.602Z,99524.36
2022-12-11T02:24:06.076Z,99525.88
2022-12-11T02:26:55.052Z,99525.79
2022-12-11T02:29:29.240Z,99524.53
2022-12-11T02:32:10.417Z,99527.34
2022-12-11T02:34:47.980Z,99528.79
2022-12-11T02:37:24.564Z,99529.76
2022-12-11T02:39:58.246Z,99521.86
2022-12-11T02:42:34.753Z,99519.05
2022-12-11T02:45:10.188Z,99512.61
2022-12-11T02:47:42.938Z,99507.20
2022-12-11T02:50:19.282Z,99506.08
2022-12-11T02:52:56.194Z,99510.92
2022-12-11T02:55:32.785Z,99514.55
2022-12-11T02:58:09.711Z,99514.23
2022-12-11T03:00:41.950Z,99512.07
2022-12-11T03:03:15.599Z,99513.57
2022-12-11T03:05:47.786Z,99515.26
2022-12-11T03:08:22.540Z,99510.73
2022-12-11T03:10:54.780Z,99510.20
2022-12-11T03:13:27.756Z,99514.94
2022-12-11T03:16:14.620Z,99514.90
2022-12-11T03:18:55.979Z,99518.14
2022-12-11T03:21:36.371Z,99514.27
2022-12-11T03:24:11.724Z,99513.39
2022-12-11T03:26:56.205Z,99514.40
2022-12-11T03:29:33.772Z,99520.96
2022-12-11T03:32:10.378Z,99523.33
2022-12-11T03:34:49.517Z,99521.25
2022-12-11T03:37:25.424Z,99519.95
2022-12-11T03:40:04.367Z,99519.58
2022-12-11T03:42:38.770Z,99521.94
2022-12-11T03:45:13.806Z,99523.55
2022-12-11T03:47:50.108Z,99526.83
2022-12-11T03:50:24.020Z,99524.02
2022-12-11T03:52:57.272Z,99524.55
2022-12-11T03:55:32.412Z,99526.73
2022-12-11T03:58:05.246Z,99528.27
2022-12-11T04:00:38.178Z,99525.46
2022-12-11T04:03:18.437Z,99520.86
2022-12-11T04:05:54.596Z,99514.90
2022-12-11T04:08:30.089Z,99509.44
2022-12-11T04:11:22.218Z,99500.98
2022-12-11T04:14:08.284Z,99497.44
2022-12-11T04:16:40.964Z,99498.69
2022-12-11T04:19:30.692Z,99498.32
2022-12-11T04:22:20.907Z,99497.59
2022-12-11T04:24:54.232Z,99494.48
2022-12-11T04:27:47.620Z,99492.46
2022-12-11T04:30:21.707Z,99492.56
2022-12-11T04:32:56.358Z,99494.23
2022-12-11T04:35:32.252Z,99496.83
2022-12-11T04:38:04.896Z,99498.02
2022-12-11T04:40:37.977Z,99490.32
2022-12-11T04:43:10.533Z,99491.42
2022-12-11T04:45:42.861Z,99490.15
2022-12-11T04:48:16.594Z,99488.95
2022-12-11T04:50:49.127Z,99492.31
2022-12-11T04:53:21.916Z,99486.45
2022-12-11T04:55:54.162Z,99482.48
2022-12-11T04:58:36.498Z,99478.93
2022-12-11T05:01:20.443Z,99475.19
2022-12-11T05:03:58.300Z,99471.23
2022-12-11T05:06:31.007Z,99462.83
2022-12-11T05:09:05.298Z,99452.98
2022-12-11T05:11:44.895Z,99450.40
2022-12-11T05:14:17.092Z,99448.79
2022-12-11T05:16:56.430Z,99443.91
2022-12-11T05:19:30.868Z,99440.83
2022-12-11T05:22:02.892Z,99436.48
2022-12-11T05:24:35.194Z,99427.95
2022-12-11T05:27:07.295Z,99425.67
2022-12-11T05:29:39.631Z,99420.44
2022-12-11T05:32:14.420Z,99418.49
2022-12-11T05:34:48.154Z,99422.40
2022-12-11T05:37:20.773Z,99422.20
2022-12-11T05:39:53.461Z,99418.55
2022-12-11T05:42:29.028Z,99416.18
2022-12-11T05:45:03.711Z,99410.74
2022-12-11T05:47:36.327Z,99404.91
2022-12-11T05:50:17.955Z,99404.77
2022-12-11T05:52:51.862Z,99395.36
2022-12-11T05:55:25.384Z,99392.45
2022-12-11T05:57:57.471Z,99392.84
2022-12-11T06:00:35.910Z,99393.46
2022-12-11T06:03:08.499Z,99390.41
2022-12-11T06:05:44.070Z,99393.96
2022-12-11T06:08:16.416Z,99392.55
2022-12-11T06:10:51.457Z,99392.08
2022-12-11T06:13:23.653Z,99396.02
2022-12-11T06:15:56.761Z,99395.08
2022-12-11T06:18:42.950Z,99396.27
2022-12-11T06:21:17.389Z,99397.27
2022-12-11T06:23:51.354Z,99397.83
2022-12-11T06:26:29.895Z,99404.15
2022-12-11T06:29:05.283Z,99407.17
2022-12-11T06:31:50.337Z,99409.70
2022-12-11T06:34:23.390Z,99406.94
2022-12-11T06:36:55.680Z,99405.02
2022-12-11T06:39:28.419Z,99403.91
2022-12-11T06:42:01.132Z,99403.79
2022-12-11T06:44:34.289Z,99404.65
2022-12-11T06:47:06.627Z,99405.85
2022-12-11T06:49:41.147Z,99408.74
2022-12-11T06:52:18.139Z,99409.96
2022-12-11T06:54:50.639Z,99411.92
2022-12-11T06:57:23.603Z,99413.90
2022-12-11T06:59:55.666Z,99411.40
2022-12-11T07:02:29.195Z,99407.77
2022-12-11T07:05:01.545Z,99408.20
2022-12-11T07:07:34.681Z,99405.55
2022-12-11T07:10:08.673Z,99400.91
2022-12-11T07:12:41.412Z,99402.16
2022-12-11T07:15:14.162Z,99405.70
2022-12-11T07:17:46.945Z,99407.73
2022-12-11T07:20:32.311Z,99406.38
2022-12-11T07:23:09.603Z,99400.31
2022-12-11T07:25:42.073Z,99399.10
2022-12-11T07:28:16.832Z,99394.84
2022-12-11T07:30:49.079Z,99386.73
2022-12-11T07:33:21.506Z,99384.23
2022-12-11T07:35:53.627Z,99378.98
2022-12-11T07:38:25.843Z,99378.48
2022-12-11T07:41:01.387Z,99378.19
2022-12-11T07:43:34.222Z,99370.48
2022-12-11T07:46:08.880Z,99375.07
2022-12-11T07:48:47.310Z,99370.61
2022-12-11T07:51:23.271Z,99368.77
2022-12-11T07:54:02.244Z,99367.58
2022-12-11T07:56:43.871Z,99366.91
2022-12-11T07:59:17.099Z,99367.06
2022-12-11T08:01:49.544Z,99370.39
2022-12-11T08:04:21.682Z,99368.51
2022-12-11T08:06:53.797Z,99369.86
2022-12-11T08:09:25.918Z,99368.75
2022-12-11T08:12:00.404Z,99367.89
2022-12-11T08:14:34.913Z,99366.70
2022-12-11T08:17:06.960Z,99366.16
2022-12-11T08:19:51.668Z,99363.59
2022-12-11T08:22:23.685Z,99362.23
2022-12-11T08:24:55.909Z,99362.13
2022-12-11T08:27:30.402Z,99360.77
2022-12-11T08:30:02.761Z,99357.11
2022-12-11T08:32:35.343Z,99358.37
2022-12-11T08:35:14.994Z,99351.59
2022-12-11T08:37:47.606Z,99351.27
2022-12-11T08:40:20.624Z,99349.16
2022-12-11T08:42:53.078Z,99348.61
2022-12-11T08:45:25.220Z,99344.90
2022-12-11T08:47:57.407Z,99345.19
2022-12-11T08:50:31.183Z,99339.53
2022-12-11T08:53:03.250Z,99342.36
2022-12-11T08:55:36.231Z,99345.81
2022-12-11T08:58:08.704Z,99342.31
2022-12-11T09:00:41.706Z,99344.45
2022-12-11T09:03:16.203Z,99344.75
2022-12-11T09:05:48.395Z,99338.02
2022-12-11T09:08:20.744Z,99328.30
2022-12-11T09:10:53.319Z,99325.80
2022-12-11T09:13:25.276Z,99319.94
2022-12-11T09:15:59.996Z,99320.02
2022-12-11T09:18:35.970Z,99321.78
2022-12-11T09:21:19.317Z,99318.61
2022-12-11T09:23:54.085Z,99307.08
2022-12-11T09:26:27.195Z,99297.52
2022-12-11T09:29:09.020Z,99295.58
2022-12-11T09:31:47.176Z,99300.33
2022-12-11T09:34:23.632Z,99296.05
2022-12-11T09:37:00.987Z,99288.43
2022-12-11T09:39:33.976Z,99285.27
2022-12-11T09:42:12.488Z,99282.59
2022-12-11T09:44:50.412Z,99273.91
2022-12-11T09:47:33.171Z,99268.58
2022-12-11T09:50:14.056Z,99265.70
2022-12-11T09:53:04.760Z,99268.83
2022-12-11T09:55:47.685Z,99262.00
2022-12-11T09:58:34.826Z,99260.02
2022-12-11T10:01:18.851Z,99258.27
2022-12-11T10:04:21.165Z,99262.45
2022-12-11T10:07:02.419Z,99258.06
2022-12-11T10:09:48.939Z,99245.95
2022-12-11T10:12:40.140Z,99243.08
2022-12-11T10:15:27.296Z,99243.36
2022-12-11T10:18:05.068Z,99239.27
2022-12-11T10:20:41.277Z,99233.64
2022-12-11T10:23:49.426Z,99233.02
2022-12-11T10:26:24.986Z,99226.69
2022-12-11T10:28:59.911Z,99224.77
2022-12-11T10:31:51.477Z,99222.73
2022-12-11T10:34:34.837Z,99218.16
2022-12-11T10:37:07.070Z,99223.85
2022-12-11T10:39:43.181Z,99223.21
2022-12-11T10:42:22.577Z,99214.38
2022-12-11T10:45:03.054Z,99210.12
2022-12-11T10:47:38.447Z,99208.55
2022-12-11T10:50:25.267Z,99202.20
2022-12-11T10:53:05.047Z,99189.11
2022-12-11T10:55:46.443Z,99184.94
2022-12-11T10:58:21.831Z,99181.64
2022-12-11T11:01:09.521Z,99175.46
2022-12-11T11:03:54.893Z,99170.55
2022-12-11T11:06:30.951Z,99165.64
2022-12-11T11:09:30.975Z,99163.80
2022-12-11T11:12:07.822Z,99161.73
2022-12-11T11:14:40.740Z,99154.13
2022-12-11T11:17:18.740Z,99152.98
2022-12-11T11:19:54.189Z,99149.48
2022-12-11T11:22:28.632Z,99148.45
2022-12-11T11:25:02.914Z,99147.50
2022-12-11T11:27:44.416Z,99143.35
2022-12-11T11:30:23.344Z,99146.86
2022-12-11T11:33:02.364Z,99140.98
2022-12-11T11:35:45.513Z,99138.38
2022-12-11T11:38:21.241Z,99134.75
2022-12-11T11:41:05.659Z,99133.67
2022-12-11T11:43:47.188Z,99126.94
2022-12-11T11:46:33.642Z,99124.77
2022-12-11T11:49:14.363Z,99123.45
2022-12-11T11:51:48.143Z,99124.17
2022-12-11T11:54:32.757Z,99121.70
2022-12-11T11:57:15.443Z,99121.73
2022-12-11T11:59:53.157Z,99116.79
2022-12-11T12:02:25.529Z,99120.88
2022-12-11T12:04:58.243Z,99120.52
2022-12-11T12:07:39.961Z,99121.73
2022-12-11T12:10:21.688Z,99118.55
2022-12-11T12:13:02.549Z,99119.92
2022-12-11T12:15:45.257Z,99122.23
2022-12-11T12:18:27.401Z,99118.34
2022-12-11T12:21:08.941Z,99117.95
2022-12-11T12:24:06.459Z,99118.48
2022-12-11T12:26:54.424Z,99119.55
2022-12-11T12:29:42.080Z,99111.90
2022-12-11T12:32:25.643Z,99108.70
2022-12-11T12:35:11.915Z,99105.27
2022-12-11T12:38:00.253Z,99104.74
2022-12-11T12:40:41.442Z,99097.48
2022-12-11T12:43:36.726Z,99091.90
2022-12-11T12:46:47.004Z,99092.20
2022-12-11T12:49:26.604Z,99087.46
2022-12-11T12:52:01.078Z,99086.06
2022-12-11T12:54:39.393Z,99084.34
2022-12-11T12:57:11.710Z,99082.80
2022-12-11T12:59:44.422Z,99083.25
2022-12-11T13:02:19.620Z,99087.88
2022-12-11T13:05:01.105Z,99083.42
2022-12-11T13:07:36.612Z,99079.06
2022-12-11T13:10:27.498Z,99077.41
2022-12-11T13:13:01.460Z,99079.52
2022-12-11T13:15:42.837Z,99080.91
2022-12-11T13:18:36.595Z,99078.66
2022-12-11T13:21:35.582Z,99081.31
2022-12-11T13:24:29.847Z,99078.23
2022-12-11T13:27:12.280Z,99077.08
2022-12-11T13:29:45.068Z,99074.43
2022-12-11T13:32:31.445Z,99073.55
2022-12-11T13:35:16.808Z,99079.52
2022-12-11T13:37:52.269Z,99079.42
2022-12-11T13:40:27.775Z,99081.99
2022-12-11T13:43:04.295Z,99080.59
2022-12-11T13:45:45.740Z,99078.84
2022-12-11T13:48:33.489Z,99077.98
2022-12-11T13:51:07.631Z,99081.88
2022-12-11T13:53:42.157Z,99088.30
2022-12-11T13:56:26.424Z,99085.73
2022-12-11T13:59:03.990Z,99080.27
2022-12-11T14:01:56.532Z,99077.18
2022-12-11T14:04:31.489Z,99081.33
2022-12-11T14:07:08.095Z,99077.02
2022-12-11T14:09:47.880Z,99075.32
2022-12-11T14:12:24.003Z,99077.27
2022-12-11T14:14:59.055Z,99079.27
2022-12-11T14:17:35.880Z,99070.33
2022-12-11T14:20:19.615Z,99061.91
2022-12-11T14:22:52.102Z,99063.00
2022-12-11T14:25:27.246Z,99062.48
2022-12-11T14:28:01.879Z,99058.63
2022-12-11T14:30:40.077Z,99055.78
2022-12-11T14:33:22.284Z,99057.86
2022-12-11T14:35:56.401Z,99059.42
2022-12-11T14:38:33.781Z,99065.77
2022-12-11T14:41:13.828Z,99063.05
2022-12-11T14:43:49.887Z,99057.94
2022-12-11T14:46:31.676Z,99057.35
2022-12-11T14:49:17.308Z,99053.89
2022-12-11T14:51:50.607Z,99050.01
2022-12-11T14:54:37.686Z,99052.34
2022-12-11T14:57:19.580Z,99061.75
2022-12-11T14:59:54.794Z,99065.31
2022-12-11T15:02:35.066Z,99065.87
2022-12-11T15:05:18.909Z,99060.84
2022-12-11T15:08:01.468Z,99060.06
2022-12-11T15:10:39.310Z,99057.08
2022-12-11T15:13:14.168Z,99058.48
2022-12-11T15:15:50.030Z,99060.13
2022-12-11T15:18:24.992Z,99063.89
2022-12-11T15:21:01.001Z,99066.16
2022-12-11T15:24:23.458Z,99058.64
2022-12-11T15:27:26.812Z,99055.73
2022-12-11T15:30:57.311Z,99056.96
2022-12-11T15:33:35.516Z,99058.66
2022-12-11T15:36:53.556Z,99063.90
2022-12-11T15:39:26.426Z,99065.79
2022-12-11T15:42:01.446Z,99066.86
2022-12-11T15:44:35.683Z,99063.25
2022-12-11T15:47:16.707Z,99065.77
2022-12-11T15:49:49.443Z,99071.30
2022-12-11T15:52:22.214Z,99074.90
2022-12-11T15:54:55.209Z,99074.42
2022-12-11T15:57:30.405Z,99070.91
2022-12-11T16:00:03.599Z,99068.60
2022-12-11T16:02:37.991Z,99060.64
2022-12-11T16:05:13.367Z,99055.10
2022-12-11T16:07:47.552Z,99058.77
2022-12-11T16:10:21.424Z,99064.85
2022-12-11T16:12:57.224Z,99068.05
2022-12-11T16:15:31.471Z,99068.08
2022-12-11T16:18:08.837Z,99063.91
2022-12-11T16:20:42.911Z,99058.57
2022-12-11T16:23:17.358Z,99060.13
2022-12-11T16:25:50.521Z,99060.14
2022-12-11T16:28:22.979Z,99060.46
2022-12-11T16:30:56.018Z,99064.47
2022-12-11T16:33:30.593Z,99066.61
2022-12-11T16:36:02.869Z,99068.27
2022-12-11T16:38:36.055Z,99063.76
2022-12-11T16:41:11.003Z,99061.28
2022-12-11T16:43:49.733Z,99063.85
2022-12-11T16:46:46.746Z,99067.64
2022-12-11T16:49:21.189Z,99062.40
2022-12-11T16:51:54.283Z,99065.04
2022-12-11T16:54:26.555Z,99064.60
2022-12-11T16:57:01.685Z,99062.77
2022-12-11T16:59:37.534Z,99060.94
2022-12-11T17:02:12.690Z,99054.84
2022-12-11T17:04:50.684Z,99059.69
2022-12-11T17:07:30.685Z,99061.58
2022-12-11T17:10:03.923Z,99061.35
2022-12-11T17:12:37.140Z,99058.39
2022-12-11T17:15:11.336Z,99055.94
2022-12-11T17:17:44.446Z,99054.23
2022-12-11T17:20:16.436Z,99055.38
2022-12-11T17:22:49.310Z,99053.34
2022-12-11T17:25:27.397Z,99055.77
2022-12-11T17:28:02.177Z,99052.86
2022-12-11T17:30:34.415Z,99054.98
2022-12-11T17:33:09.233Z,99054.10
2022-12-11T17:35:41.581Z,99049.13
2022-12-11T17:38:13.960Z,99047.52
2022-12-11T17:40:46.820Z,99045.64
2022-12-11T17:43:19.033Z,99043.63
2022-12-11T17:45:52.980Z,99046.55
2022-12-11T17:48:25.551Z,99044.93
2022-12-11T17:50:58.485Z,99050.45
2022-12-11T17:53:31.966Z,99053.25
2022-12-11T17:56:06.482Z,99056.19
2022-12-11T17:58:46.272Z,99062.23
2022-12-11T18:01:21.457Z,99067.33
2022-12-11T18:03:54.808Z,99067.70
2022-12-11T18:06:31.468Z,99067.39
2022-12-11T18:09:11.560Z,99071.17
2022-12-11T18:11:45.271Z,99065.76
2022-12-11T18:14:18.414Z,99062.64
2022-12-11T18:16:54.575Z,99062.09
2022-12-11T18:19:27.775Z,99060.29
2022-12-11T18:22:02.540Z,99057.52
2022-12-11T18:24:35.070Z,99056.37
2022-12-11T18:27:12.717Z,99055.53
2022-12-11T18:29:45.456Z,99058.61
2022-12-11T18:32:18.833Z,99059.76
2022-12-11T18:34:51.238Z,99059.09
2022-12-11T18:37:27.721Z,99057.90
2022-12-11T18:40:03.479Z,99056.19
2022-12-11T18:42:40.114Z,99054.77
2022-12-11T18:45:13.866Z,99052.86
2022-12-11T18:47:47.430Z,99054.04
2022-12-11T18:50:25.791Z,99053.88
2022-12-11T18:52:58.584Z,99053.92
2022-12-11T18:55:34.821Z,99053.55
2022-12-11T18:58:12.701Z,99047.30
2022-12-11T19:00:46.336Z,99040.86
2022-12-11T19:03:18.571Z,99038.63
2022-12-11T19:05:56.677Z,99038.67
2022-12-11T19:08:33.444Z,99030.81
2022-12-11T19:11:07.043Z,99033.17
2022-12-11T19:13:46.120Z,99035.94
2022-12-11T19:16:24.077Z,99032.29
2022-12-11T19:19:04.053Z,99026.41
2022-12-11T19:21:42.266Z,99026.59
2022-12-11T19:24:20.900Z,99022.51
2022-12-11T19:26:56.338Z,99024.82
2022-12-11T19:29:32.607Z,99020.26
2022-12-11T19:32:06.406Z,99024.63
2022-12-11T19:34:39.608Z,99020.78
2022-12-11T19:37:14.549Z,99019.94
2022-12-11T19:39:48.900Z,99024.07
2022-12-11T19:42:21.495Z,99020.95
2022-12-11T19:44:53.770Z,99019.26
2022-12-11T19:47:26.606Z,99021.80
2022-12-11T19:50:01.436Z,99024.64
2022-12-11T19:52:34.773Z,99027.15
2022-12-11T19:55:09.324Z,99030.17
2022-12-11T19:57:42.506Z,99030.65
2022-12-11T20:00:24.043Z,99035.20
2022-12-11T20:02:56.388Z,99039.49
2022-12-11T20:05:29.654Z,99036.06
2022-12-11T20:08:27.670Z,99035.54
2022-12-11T20:10:56.978Z,99035.04
2022-12-11T20:13:32.929Z,99027.69
2022-12-11T20:16:08.619Z,99027.79
2022-12-11T20:18:45.527Z,99029.02
2022-12-11T20:21:20.195Z,99022.14
2022-12-11T20:23:53.240Z,99017.60
2022-12-11T20:26:32.791Z,99016.89
2022-12-11T20:29:08.658Z,99022.01
2022-12-11T20:31:54.991Z,99019.84
2022-12-11T20:34:30.711Z,99017.59
2022-12-11T20:37:03.694Z,99014.83
2022-12-11T20:39:36.383Z,99016.79
2022-12-11T20:42:09.850Z,99017.17
2022-12-11T20:44:47.330Z,99016.88
2022-12-11T20:47:21.800Z,99013.92
2022-12-11T20:49:55.260Z,99009.55
2022-12-11T20:52:28.989Z,99005.17
2022-12-11T20:55:01.796Z,99005.08
2022-12-11T20:57:34.944Z,99005.30
2022-12-11T21:00:09.393Z,99007.13
2022-12-11T21:02:41.773Z,99010.14
2022-12-11T21:05:14.694Z,99013.22
2022-12-11T21:07:47.894Z,99012.36
2022-12-11T21:10:21.960Z,99009.27
2022-12-11T21:12:57.412Z,99003.60
2022-12-11T21:15:30.223Z,98997.71
2022-12-11T21:18:02.359Z,98997.70
2022-12-11T21:20:37.224Z,99000.88
2022-12-11T21:23:09.234Z,99002.34
2022-12-11T21:25:42.030Z,99006.09
2022-12-11T21:28:16.812Z,99005.18
2022-12-11T21:30:50.369Z,99005.94
2022-12-11T21:33:24.585Z,99008.91
2022-12-11T21:35:58.989Z,99011.54
2022-12-11T21:38:31.494Z,99009.61
2022-12-11T21:41:11.617Z,99009.23
2022-12-11T21:46:50.498Z,99011.70
2022-12-11T21:49:22.534Z,99009.19
2022-12-11T21:51:54.818Z,99003.84
2022-12-11T21:54:26.776Z,99003.85
2022-12-11T21:57:01.424Z,99001.89
2022-12-11T21:59:35.276Z,99001.84
2022-12-11T22:02:07.853Z,99003.05
2022-12-11T22:04:39.959Z,99005.59
2022-12-11T22:07:12.428Z,99007.10
2022-12-11T22:09:44.496Z,99009.76
2022-12-11T22:12:22.776Z,99006.88
2022-12-11T22:14:55.165Z,99008.77
2022-12-11T22:17:30.693Z,99006.52
2022-12-11T22:20:03.705Z,99007.88
2022-12-11T22:22:35.858Z,99012.55
2022-12-11T22:25:09.924Z,99018.26
2022-12-11T22:27:42.343Z,99017.40
2022-12-11T22:30:15.620Z,99022.66
2022-12-11T22:32:48.019Z,99021.02
2022-12-11T22:35:24.151Z,99018.17
2022-12-11T22:37:59.930Z,99011.77
2022-12-11T22:40:33.437Z,99011.08
2022-12-11T22:43:06.262Z,99006.31
2022-12-11T22:45:42.086Z,99009.36
2022-12-11T22:48:14.720Z,99003.65
2022-12-11T22:50:46.817Z,99005.94
2022-12-11T22:53:19.194Z,99003.39
2022-12-11T22:55:51.482Z,99009.43
2022-12-11T22:58:23.930Z,99010.45
2022-12-11T23:00:56.757Z,99010.84
2022-12-11T23:04:04.312Z,99004.83
2022-12-11T23:06:36.289Z,99003.36
2022-12-11T23:09:09.844Z,98997.73
2022-12-11T23:11:42.362Z,98997.85
2022-12-11T23:14:18.979Z,99002.46
2022-12-11T23:16:51.066Z,99003.71
2022-12-11T23:19:25.642Z,99004.46
2022-12-11T23:21:57.906Z,99006.08
2022-12-11T23:24:31.399Z,99012.92
2022-12-11T23:27:03.466Z,99015.83
2022-12-11T23:29:35.747Z,99018.67
2022-12-11T23:32:08.524Z,99022.05
2022-12-11T23:34:40.753Z,99023.38
2022-12-11T23:37:17.359Z,99025.69
2022-12-11T23:39:49.498Z,99029.19
2022-12-11T23:42:25.074Z,99025.40
2022-12-11T23:44:57.860Z,99022.80
2022-12-11T23:47:34.865Z,99014.40
2022-12-11T23:50:08.202Z,99006.27
2022-12-11T23:52:40.220Z,99004.28
2022-12-11T23:55:13.434Z,99006.39
2022-12-11T23:57:45.736Z,99006.90
